Terminal Aerodrome Forecast
Issued by NWS

Home | Current Version | Previous Version | Text Only | Print | Product List | Glossary On
Versions: 1 2 3 4 5 6 7 8 9 10 11 12 13 14 15 16 17 18 19 20 21 22 23 24
000
FTUS43 KFGF 171700 AAA
TAFBJI
TAF AMD
KBJI 171700Z 1717/1812 09008KT P6SM BKN012
      TEMPO 1717/1719 BKN009
     FM172100 11008KT P6SM BKN025
     FM180800 13005KT P6SM VCTS BKN030CB=

USA.gov is the U.S. government's official web portal to all federal, state and local government web resources and services.